createdAt,value
2023-03-07T00:00:50.464Z,2.80
2023-03-07T00:03:20.595Z,2.82
2023-03-07T00:05:49.001Z,2.84
2023-03-07T00:08:18.349Z,2.86
2023-03-07T00:10:46.373Z,2.89
2023-03-07T00:13:35.197Z,2.89
2023-03-07T00:16:10.526Z,2.88
2023-03-07T00:18:38.638Z,2.88
2023-03-07T00:21:09.639Z,2.89
2023-03-07T00:23:41.675Z,2.91
2023-03-07T00:26:21.529Z,2.89
2023-03-07T00:28:52.089Z,2.88
2023-03-07T00:31:21.557Z,2.85
2023-03-07T00:34:29.763Z,2.84
2023-03-07T00:37:06.851Z,2.85
2023-03-07T00:39:36.810Z,2.85
2023-03-07T00:42:07.768Z,2.82
2023-03-07T00:45:04.866Z,2.79
2023-03-07T00:47:33.736Z,2.75
2023-03-07T00:50:01.856Z,2.72
2023-03-07T00:52:29.873Z,2.70
2023-03-07T00:55:20.594Z,2.70
2023-03-07T00:57:52.763Z,2.74
2023-03-07T01:00:21.010Z,2.78
2023-03-07T01:03:30.306Z,2.78
2023-03-07T01:06:25.754Z,2.76
2023-03-07T01:09:31.340Z,2.72
2023-03-07T01:11:59.437Z,2.71
2023-03-07T01:14:32.434Z,2.73
2023-03-07T01:17:00.675Z,2.72
2023-03-07T01:19:28.780Z,2.72
2023-03-07T01:21:56.804Z,2.71
2023-03-07T01:25:25.745Z,2.68
2023-03-07T01:28:14.998Z,2.68
2023-03-07T01:30:57.753Z,2.69
2023-03-07T01:34:09.263Z,2.68
2023-03-07T01:36:55.353Z,2.67
2023-03-07T01:39:27.485Z,2.70
2023-03-07T01:41:59.495Z,2.74
2023-03-07T01:45:24.570Z,2.75
2023-03-07T01:48:09.194Z,2.73
2023-03-07T01:50:37.610Z,2.74
2023-03-07T01:53:06.453Z,2.79
2023-03-07T01:55:37.035Z,2.80
2023-03-07T01:58:15.793Z,2.84
2023-03-07T02:00:49.767Z,2.86
2023-03-07T02:03:48.298Z,2.73
2023-03-07T02:06:16.855Z,2.83
2023-03-07T02:08:51.198Z,2.83
2023-03-07T02:12:22.217Z,2.82
2023-03-07T02:14:52.599Z,2.79
2023-03-07T02:17:42.578Z,2.79
2023-03-07T02:20:26.766Z,2.80
2023-03-07T02:22:56.007Z,2.82
2023-03-07T02:25:37.467Z,2.83
2023-03-07T02:28:08.470Z,2.83
2023-03-07T02:30:38.571Z,2.79
2023-03-07T02:33:06.723Z,2.79
2023-03-07T02:35:35.030Z,2.78
2023-03-07T02:38:07.685Z,2.77
2023-03-07T02:40:36.735Z,2.76
2023-03-07T02:43:09.652Z,2.77
2023-03-07T02:45:39.116Z,2.77
2023-03-07T02:48:43.471Z,2.78
2023-03-07T02:51:12.170Z,2.82
2023-03-07T02:53:44.173Z,2.86
2023-03-07T02:56:12.268Z,2.85
2023-03-07T02:58:48.510Z,2.83
2023-03-07T03:01:17.247Z,2.80
2023-03-07T03:03:45.394Z,2.76
2023-03-07T03:06:14.974Z,2.75
2023-03-07T03:08:43.748Z,2.75
2023-03-07T03:11:11.878Z,2.74
2023-03-07T03:13:40.057Z,2.73
2023-03-07T03:16:08.178Z,2.75
2023-03-07T03:18:47.489Z,2.75
2023-03-07T03:21:20.879Z,2.73
2023-03-07T03:23:48.876Z,2.71
2023-03-07T03:26:16.834Z,2.71
2023-03-07T03:29:07.468Z,2.72
2023-03-07T03:31:36.534Z,2.73
2023-03-07T03:34:05.795Z,2.75
2023-03-07T03:36:34.426Z,2.76
2023-03-07T03:39:25.439Z,2.79
2023-03-07T03:41:57.192Z,2.78
2023-03-07T03:44:45.893Z,2.77
2023-03-07T03:47:14.040Z,2.74
2023-03-07T03:49:42.542Z,2.76
2023-03-07T03:52:10.923Z,2.79
2023-03-07T03:54:39.032Z,2.79
2023-03-07T03:57:07.879Z,2.83
2023-03-07T03:59:56.135Z,2.88
2023-03-07T04:02:31.204Z,2.91
2023-03-07T04:04:59.921Z,2.96
2023-03-07T04:07:29.302Z,3.00
2023-03-07T04:10:19.557Z,3.02
2023-03-07T04:12:48.181Z,2.99
2023-03-07T04:15:16.580Z,2.99
2023-03-07T04:17:44.828Z,2.96
2023-03-07T04:20:18.168Z,2.94
2023-03-07T04:23:08.628Z,2.90
2023-03-07T04:25:39.939Z,2.87
2023-03-07T04:28:25.490Z,2.88
2023-03-07T04:31:23.224Z,2.90
2023-03-07T04:34:31.246Z,2.94
2023-03-07T04:37:28.027Z,2.91
2023-03-07T04:39:57.590Z,2.93
2023-03-07T04:42:25.800Z,2.96
2023-03-07T04:44:53.787Z,2.96
2023-03-07T04:47:42.486Z,2.96
2023-03-07T04:50:25.895Z,2.95
2023-03-07T04:52:54.083Z,2.94
2023-03-07T04:55:23.395Z,2.93
2023-03-07T04:57:52.206Z,2.86
2023-03-07T05:01:07.659Z,2.77
2023-03-07T05:04:01.085Z,2.65
2023-03-07T05:06:29.677Z,2.57
2023-03-07T05:08:58.016Z,2.51
2023-03-07T05:11:28.742Z,2.44
2023-03-07T05:13:57.434Z,2.41
2023-03-07T05:16:25.608Z,2.40
2023-03-07T05:19:17.263Z,2.37
2023-03-07T05:22:27.046Z,2.33
2023-03-07T05:25:37.083Z,2.31
2023-03-07T05:28:20.484Z,2.26
2023-03-07T05:30:48.767Z,2.21
2023-03-07T05:33:17.011Z,2.15
2023-03-07T05:35:45.341Z,2.11
2023-03-07T05:38:14.350Z,2.09
2023-03-07T05:40:42.776Z,2.09
2023-03-07T05:43:52.056Z,2.05
2023-03-07T05:47:00.713Z,2.02
2023-03-07T05:49:29.507Z,2.03
2023-03-07T05:51:57.682Z,2.08
2023-03-07T05:54:55.089Z,2.13
2023-03-07T05:57:54.221Z,2.14
2023-03-07T06:00:23.090Z,2.13
2023-03-07T06:02:55.061Z,2.17
2023-03-07T06:06:04.193Z,2.20
2023-03-07T06:08:33.708Z,2.26
2023-03-07T06:11:02.209Z,2.30
2023-03-07T06:13:31.804Z,2.32
2023-03-07T06:15:59.854Z,2.32
2023-03-07T06:18:28.011Z,2.31
2023-03-07T06:21:02.175Z,2.33
2023-03-07T06:23:34.907Z,2.33
2023-03-07T06:26:07.681Z,2.36
2023-03-07T06:28:37.230Z,2.39
2023-03-07T06:31:10.884Z,2.39
2023-03-07T06:33:39.616Z,2.43
2023-03-07T06:36:28.862Z,2.48
2023-03-07T06:39:00.348Z,2.52
2023-03-07T06:41:29.041Z,2.56
2023-03-07T06:43:58.720Z,2.64
2023-03-07T06:46:30.080Z,2.68
2023-03-07T06:48:59.687Z,2.72
2023-03-07T06:51:46.596Z,2.80
2023-03-07T06:54:14.745Z,2.85
2023-03-07T06:56:45.332Z,2.94
2023-03-07T06:59:14.510Z,3.01
2023-03-07T07:01:42.574Z,3.04
2023-03-07T07:04:11.697Z,3.06
2023-03-07T07:06:42.283Z,3.15
2023-03-07T07:09:13.686Z,3.27
2023-03-07T07:11:41.979Z,3.42
2023-03-07T07:14:12.577Z,3.58
2023-03-07T07:16:41.067Z,3.67
2023-03-07T07:19:10.800Z,3.70
2023-03-07T07:21:38.814Z,3.74
2023-03-07T07:24:07.028Z,3.83
2023-03-07T07:26:35.967Z,3.92
2023-03-07T07:29:04.707Z,3.97
2023-03-07T07:31:32.857Z,4.06
2023-03-07T07:34:01.040Z,4.22
2023-03-07T07:36:30.863Z,4.46
2023-03-07T07:38:59.337Z,4.67
2023-03-07T07:41:27.986Z,4.86
2023-03-07T07:43:56.521Z,4.94
2023-03-07T07:46:37.693Z,4.97
2023-03-07T07:49:06.835Z,4.95
2023-03-07T07:51:34.894Z,4.90
2023-03-07T07:54:02.991Z,4.81
2023-03-07T07:56:39.442Z,4.76
2023-03-07T07:59:07.502Z,4.75
2023-03-07T08:01:35.914Z,4.70
2023-03-07T08:04:03.982Z,4.70
2023-03-07T08:06:32.129Z,4.71
2023-03-07T08:09:02.402Z,4.78
2023-03-07T08:11:30.553Z,4.81
2023-03-07T08:13:58.528Z,4.84
2023-03-07T08:16:26.957Z,4.88
2023-03-07T08:18:57.009Z,4.97
2023-03-07T08:21:26.171Z,5.09
2023-03-07T08:23:55.515Z,5.35
2023-03-07T08:26:28.957Z,5.74
2023-03-07T08:28:58.248Z,6.05
2023-03-07T08:31:26.797Z,6.38
2023-03-07T08:33:54.774Z,6.59
2023-03-07T08:36:22.900Z,6.60
2023-03-07T08:38:52.838Z,6.72
2023-03-07T08:41:23.114Z,6.97
2023-03-07T08:43:51.331Z,7.39
2023-03-07T08:46:20.030Z,7.73
2023-03-07T08:48:53.885Z,8.21
2023-03-07T08:51:23.356Z,8.87
2023-03-07T08:53:51.322Z,9.40
2023-03-07T08:56:20.225Z,9.68
2023-03-07T08:59:17.728Z,9.86
2023-03-07T09:01:51.730Z,9.98
2023-03-07T09:04:19.825Z,10.18
2023-03-07T09:06:48.040Z,10.41
2023-03-07T09:09:18.484Z,10.46
2023-03-07T09:11:46.557Z,10.32
2023-03-07T09:14:14.529Z,10.27
2023-03-07T09:16:42.654Z,10.37
2023-03-07T09:19:31.117Z,10.36
2023-03-07T09:21:59.316Z,10.18
2023-03-07T09:24:27.608Z,9.99
2023-03-07T09:26:55.741Z,9.70
2023-03-07T09:29:47.939Z,9.25
2023-03-07T09:32:16.855Z,9.09
2023-03-07T09:34:44.841Z,9.23
2023-03-07T09:37:13.067Z,9.49
2023-03-07T09:40:17.894Z,9.55
2023-03-07T09:43:34.247Z,9.35
2023-03-07T09:46:36.686Z,9.15
2023-03-07T09:49:53.896Z,8.85
2023-03-07T09:52:30.012Z,8.23
2023-03-07T09:55:05.187Z,7.74
2023-03-07T09:57:40.760Z,7.43
2023-03-07T10:01:00.521Z,7.53
2023-03-07T10:03:42.115Z,7.70
2023-03-07T10:06:25.564Z,7.70
2023-03-07T10:08:55.761Z,7.83
2023-03-07T10:11:58.420Z,8.47
2023-03-07T10:15:08.851Z,9.49
2023-03-07T10:18:10.141Z,10.20
2023-03-07T10:21:02.365Z,9.99
2023-03-07T10:24:11.637Z,9.95
2023-03-07T10:26:50.076Z,10.70
2023-03-07T10:29:23.404Z,11.40
2023-03-07T10:31:57.828Z,11.88
2023-03-07T10:34:32.550Z,12.55
2023-03-07T10:37:10.541Z,13.25
2023-03-07T10:40:03.895Z,13.86
2023-03-07T10:42:41.137Z,13.71
2023-03-07T10:45:16.396Z,13.66
2023-03-07T10:47:45.068Z,13.69
2023-03-07T10:50:41.965Z,13.74
2023-03-07T10:53:22.944Z,13.76
2023-03-07T10:55:51.128Z,13.77
2023-03-07T10:58:21.017Z,13.50
2023-03-07T11:01:21.850Z,12.77
2023-03-07T11:04:07.748Z,11.92
2023-03-07T11:06:41.758Z,11.33
2023-03-07T11:09:17.764Z,11.21
2023-03-07T11:11:56.323Z,11.05
2023-03-07T11:14:27.100Z,10.61
2023-03-07T11:17:01.492Z,10.47
2023-03-07T11:19:35.374Z,10.50
2023-03-07T11:22:12.917Z,10.67
2023-03-07T11:24:50.204Z,10.45
2023-03-07T11:27:32.074Z,10.19
2023-03-07T11:30:46.258Z,9.92
2023-03-07T11:33:21.443Z,9.64
2023-03-07T11:36:17.393Z,9.49
2023-03-07T11:39:04.261Z,9.61
2023-03-07T11:41:57.422Z,9.66
2023-03-07T11:44:47.122Z,9.98
2023-03-07T11:47:27.429Z,10.20
2023-03-07T11:50:18.451Z,10.07
2023-03-07T11:53:17.721Z,9.69
2023-03-07T11:56:25.846Z,9.50
2023-03-07T11:59:00.030Z,9.49
2023-03-07T12:01:47.675Z,9.60
2023-03-07T12:04:44.090Z,9.67
2023-03-07T12:07:43.443Z,9.95
2023-03-07T12:10:30.820Z,10.09
2023-03-07T12:13:38.029Z,10.18
2023-03-07T12:16:39.779Z,10.31
2023-03-07T12:19:26.839Z,10.41
2023-03-07T12:22:06.761Z,10.03
2023-03-07T12:24:47.147Z,9.67
2023-03-07T12:27:26.512Z,9.49
2023-03-07T12:30:01.713Z,9.39
2023-03-07T12:32:51.136Z,9.27
2023-03-07T12:35:43.638Z,9.09
2023-03-07T12:38:20.079Z,8.90
2023-03-07T12:40:52.270Z,8.91
2023-03-07T12:43:35.343Z,8.97
2023-03-07T12:46:22.557Z,9.16
2023-03-07T12:48:59.002Z,9.38
2023-03-07T12:51:39.571Z,9.51
2023-03-07T12:54:19.440Z,9.43
2023-03-07T12:57:00.817Z,9.40
2023-03-07T12:59:32.628Z,9.47
2023-03-07T13:02:03.829Z,9.55
2023-03-07T13:04:43.496Z,9.60
2023-03-07T13:07:24.979Z,9.63
2023-03-07T13:09:56.836Z,9.60
2023-03-07T13:12:32.269Z,9.36
2023-03-07T13:15:28.002Z,9.25
2023-03-07T13:18:01.239Z,9.11
2023-03-07T13:20:29.378Z,9.03
2023-03-07T13:23:01.798Z,8.90
2023-03-07T13:25:43.757Z,8.73
2023-03-07T13:28:32.087Z,8.68
2023-03-07T13:31:26.967Z,8.81
2023-03-07T13:34:33.826Z,8.90
2023-03-07T13:37:41.257Z,9.03
2023-03-07T13:40:25.740Z,9.26
2023-03-07T13:42:53.894Z,9.43
2023-03-07T13:45:40.906Z,9.47
2023-03-07T13:48:33.085Z,9.30
2023-03-07T13:51:01.001Z,9.11
2023-03-07T13:53:31.550Z,8.99
2023-03-07T13:56:20.191Z,9.01
2023-03-07T13:59:09.924Z,9.00
2023-03-07T14:02:10.858Z,8.95
2023-03-07T14:04:54.552Z,8.82
2023-03-07T14:07:22.886Z,8.73
2023-03-07T14:09:56.273Z,8.70
2023-03-07T14:12:31.517Z,8.72
2023-03-07T14:15:33.732Z,8.65
2023-03-07T14:18:20.830Z,8.54
2023-03-07T14:20:59.789Z,8.62
2023-03-07T14:23:53.956Z,8.74
2023-03-07T14:27:11.757Z,8.79
2023-03-07T14:30:02.615Z,8.96
2023-03-07T14:32:52.202Z,9.02
2023-03-07T14:35:37.389Z,9.09
2023-03-07T14:38:22.599Z,9.19
2023-03-07T14:41:11.799Z,9.16
2023-03-07T14:43:48.792Z,9.12
2023-03-07T14:46:23.742Z,9.09
2023-03-07T14:48:59.093Z,9.05
2023-03-07T14:51:29.748Z,9.06
2023-03-07T14:54:05.303Z,9.08
2023-03-07T14:56:55.730Z,9.23
2023-03-07T15:00:14.382Z,9.53
2023-03-07T15:02:54.332Z,9.62
2023-03-07T15:05:30.956Z,9.75
2023-03-07T15:07:59.076Z,9.81
2023-03-07T15:10:34.948Z,9.56
2023-03-07T15:13:12.813Z,9.16
2023-03-07T15:15:49.021Z,8.70
2023-03-07T15:18:33.621Z,8.35
2023-03-07T15:21:04.252Z,8.07
2023-03-07T15:23:32.718Z,7.93
2023-03-07T15:26:06.744Z,7.82
2023-03-07T15:28:37.677Z,7.71
2023-03-07T15:31:07.048Z,7.61
2023-03-07T15:33:37.145Z,7.49
2023-03-07T15:36:29.763Z,7.42
2023-03-07T15:39:26.826Z,7.33
2023-03-07T15:42:04.856Z,7.26
2023-03-07T15:44:34.906Z,7.19
2023-03-07T15:47:17.195Z,7.10
2023-03-07T15:49:50.095Z,7.01
2023-03-07T15:52:37.790Z,6.97
2023-03-07T15:55:16.655Z,6.94
2023-03-07T15:57:57.241Z,6.89
2023-03-07T16:00:36.804Z,6.82
2023-03-07T16:03:17.238Z,6.75
2023-03-07T16:05:45.906Z,6.62
2023-03-07T16:08:24.918Z,6.63
2023-03-07T16:11:05.296Z,6.60
2023-03-07T16:13:41.329Z,6.58
2023-03-07T16:16:16.996Z,6.57
2023-03-07T16:18:45.953Z,6.57
2023-03-07T16:21:16.069Z,6.56
2023-03-07T16:23:46.401Z,6.53
2023-03-07T16:26:18.152Z,6.53
2023-03-07T16:28:49.800Z,6.49
2023-03-07T16:31:19.143Z,6.51
2023-03-07T16:33:48.051Z,6.51
2023-03-07T16:36:17.504Z,6.52
2023-03-07T16:39:05.476Z,6.51
2023-03-07T16:41:33.560Z,6.48
2023-03-07T16:44:02.813Z,6.46
2023-03-07T16:46:31.061Z,6.45
2023-03-07T16:48:59.941Z,6.42
2023-03-07T16:51:30.544Z,6.37
2023-03-07T16:53:59.969Z,6.32
2023-03-07T16:56:36.449Z,6.28
2023-03-07T16:59:05.932Z,6.23
2023-03-07T17:01:44.418Z,6.20
2023-03-07T17:04:12.782Z,6.11
2023-03-07T17:06:42.276Z,6.08
2023-03-07T17:09:13.136Z,6.03
2023-03-07T17:11:49.363Z,6.01
2023-03-07T17:14:19.760Z,5.97
2023-03-07T17:16:50.473Z,5.88
2023-03-07T17:19:26.087Z,5.87
2023-03-07T17:21:55.256Z,5.83
2023-03-07T17:24:23.300Z,5.84
2023-03-07T17:26:53.755Z,5.83
2023-03-07T17:30:02.220Z,5.78
2023-03-07T17:32:32.550Z,5.79
2023-03-07T17:35:00.610Z,5.78
2023-03-07T17:37:30.104Z,5.78
2023-03-07T17:40:15.177Z,5.79
2023-03-07T17:42:46.105Z,5.77
2023-03-07T17:45:14.249Z,5.76
2023-03-07T17:47:42.524Z,5.75
2023-03-07T17:50:26.561Z,5.73
2023-03-07T17:52:55.872Z,5.74
2023-03-07T17:55:27.366Z,5.74
2023-03-07T17:57:55.696Z,5.75
2023-03-07T18:01:06.188Z,5.76
2023-03-07T18:03:35.200Z,5.78
2023-03-07T18:06:04.054Z,5.80
2023-03-07T18:08:32.049Z,5.78
2023-03-07T18:11:18.714Z,5.78
2023-03-07T18:13:47.258Z,5.77
2023-03-07T18:16:15.515Z,5.75
2023-03-07T18:18:58.310Z,5.73
2023-03-07T18:21:29.845Z,5.69
2023-03-07T18:23:58.246Z,5.66
2023-03-07T18:26:26.856Z,5.61
2023-03-07T18:28:56.268Z,5.59
2023-03-07T18:31:28.818Z,5.53
2023-03-07T18:33:57.043Z,5.47
2023-03-07T18:36:25.769Z,5.44
2023-03-07T18:38:53.804Z,5.43
2023-03-07T18:41:35.106Z,5.40
2023-03-07T18:44:03.690Z,5.39
2023-03-07T18:46:33.100Z,5.37
2023-03-07T18:49:01.397Z,5.34
2023-03-07T18:51:29.522Z,5.31
2023-03-07T18:53:59.676Z,5.28
2023-03-07T18:56:28.889Z,5.30
2023-03-07T18:58:59.279Z,5.30
2023-03-07T19:01:35.305Z,5.30
2023-03-07T19:04:05.374Z,5.31
2023-03-07T19:06:40.895Z,5.33
2023-03-07T19:09:15.305Z,5.35
2023-03-07T19:11:43.730Z,5.33
2023-03-07T19:14:11.653Z,5.38
2023-03-07T19:16:40.320Z,5.41
2023-03-07T19:19:08.655Z,5.42
2023-03-07T19:21:36.750Z,5.45
2023-03-07T19:24:08.070Z,5.46
2023-03-07T19:26:36.160Z,5.47
2023-03-07T19:29:04.352Z,5.49
2023-03-07T19:31:33.416Z,5.51
2023-03-07T19:34:03.635Z,5.50
2023-03-07T19:36:35.355Z,5.52
2023-03-07T19:39:05.094Z,5.50
2023-03-07T19:41:33.205Z,5.49
2023-03-07T19:44:01.676Z,5.49
2023-03-07T19:46:29.926Z,5.47
2023-03-07T19:48:58.315Z,5.48
2023-03-07T19:51:27.240Z,5.48
2023-03-07T19:53:57.302Z,5.48
2023-03-07T19:56:28.769Z,5.50
2023-03-07T19:58:59.282Z,5.54
2023-03-07T20:01:29.092Z,5.56
2023-03-07T20:03:57.433Z,5.58
2023-03-07T20:06:31.031Z,5.60
2023-03-07T20:09:00.509Z,5.52
2023-03-07T20:11:33.830Z,5.57
2023-03-07T20:14:07.602Z,5.58
2023-03-07T20:16:36.199Z,5.58
2023-03-07T20:19:07.302Z,5.57
2023-03-07T20:21:36.544Z,5.55
2023-03-07T20:24:05.237Z,5.55
2023-03-07T20:26:36.967Z,5.56
2023-03-07T20:29:05.995Z,5.53
2023-03-07T20:31:36.252Z,5.51
2023-03-07T20:34:04.424Z,5.52
2023-03-07T20:36:35.009Z,5.51
2023-03-07T20:39:10.322Z,5.49
2023-03-07T20:41:38.495Z,5.47
2023-03-07T20:44:08.130Z,5.46
2023-03-07T20:46:38.217Z,5.46
2023-03-07T20:49:06.472Z,5.47
2023-03-07T20:51:36.453Z,5.43
2023-03-07T20:54:08.591Z,5.47
2023-03-07T20:56:38.296Z,5.51
2023-03-07T20:59:07.802Z,5.55
2023-03-07T21:01:56.110Z,5.55
2023-03-07T21:04:44.219Z,5.53
2023-03-07T21:07:12.338Z,5.47
2023-03-07T21:09:40.362Z,5.47
2023-03-07T21:12:09.036Z,5.50
2023-03-07T21:14:39.280Z,5.50
2023-03-07T21:17:07.221Z,5.49
2023-03-07T21:19:35.789Z,5.50
2023-03-07T21:22:04.180Z,5.51
2023-03-07T21:25:06.546Z,5.50
2023-03-07T21:27:56.639Z,5.52
2023-03-07T21:30:24.697Z,5.53
2023-03-07T21:32:57.197Z,5.53
2023-03-07T21:35:25.398Z,5.50
2023-03-07T21:37:53.583Z,5.48
2023-03-07T21:40:22.018Z,5.44
2023-03-07T21:42:50.446Z,5.45
2023-03-07T21:45:55.473Z,5.47
2023-03-07T21:48:24.764Z,5.52
2023-03-07T21:50:55.557Z,5.52
2023-03-07T21:53:23.976Z,5.54
2023-03-07T21:55:57.022Z,5.56
2023-03-07T21:58:25.787Z,5.57
2023-03-07T22:00:57.604Z,5.57
2023-03-07T22:03:28.218Z,5.57
2023-03-07T22:05:57.565Z,5.59
2023-03-07T22:08:25.661Z,5.61
2023-03-07T22:11:00.583Z,5.63
2023-03-07T22:13:29.134Z,5.64
2023-03-07T22:16:20.915Z,5.64
2023-03-07T22:18:56.275Z,5.63
2023-03-07T22:21:26.386Z,5.64
2023-03-07T22:23:58.367Z,5.65
2023-03-07T22:27:24.448Z,5.67
2023-03-07T22:30:00.603Z,5.66
2023-03-07T22:32:28.598Z,5.60
2023-03-07T22:35:17.245Z,5.56
2023-03-07T22:37:56.696Z,5.54
2023-03-07T22:40:33.524Z,5.51
2023-03-07T22:43:01.340Z,5.52
2023-03-07T22:46:10.108Z,5.52
2023-03-07T22:49:03.717Z,5.48
2023-03-07T22:51:31.835Z,5.48
2023-03-07T22:53:59.856Z,5.46
2023-03-07T22:56:43.941Z,5.44
2023-03-07T22:59:12.035Z,5.44
2023-03-07T23:01:40.202Z,5.45
2023-03-07T23:04:09.548Z,5.45
2023-03-07T23:06:58.056Z,5.47
2023-03-07T23:09:28.599Z,5.45
2023-03-07T23:11:56.642Z,5.38
2023-03-07T23:14:24.822Z,5.40
2023-03-07T23:17:40.747Z,5.40
2023-03-07T23:20:09.498Z,5.43
2023-03-07T23:22:58.056Z,5.41
2023-03-07T23:25:46.842Z,5.43
2023-03-07T23:28:14.982Z,5.41
2023-03-07T23:30:43.235Z,5.38
2023-03-07T23:33:11.717Z,5.33
2023-03-07T23:35:44.914Z,5.30
2023-03-07T23:38:13.564Z,5.28
2023-03-07T23:40:42.072Z,5.24
2023-03-07T23:43:13.762Z,5.23
2023-03-07T23:45:42.134Z,5.22
2023-03-07T23:48:30.139Z,5.21
2023-03-07T23:51:19.388Z,5.17
2023-03-07T23:53:47.691Z,5.14
2023-03-07T23:56:16.178Z,5.14
2023-03-07T23:59:25.685Z,5.14
